createdAt,value
2018-03-12T00:00:02.520Z,8.8
2018-03-12T00:05:01.266Z,8.8
2018-03-12T00:10:01.353Z,8.8
2018-03-12T00:15:01.578Z,8.8
2018-03-12T00:20:02.990Z,8.8
2018-03-12T00:25:01.803Z,8.8
2018-03-12T00:30:01.791Z,8.8
2018-03-12T00:35:02.862Z,8.8
2018-03-12T00:40:01.768Z,8.8
2018-03-12T00:45:02.134Z,8.8
2018-03-12T00:50:01.968Z,8.8
2018-03-12T00:55:02.322Z,8.8
2018-03-12T01:00:01.519Z,8.8
2018-03-12T01:05:01.746Z,8.8
2018-03-12T01:10:01.796Z,8.8
2018-03-12T01:15:02.308Z,8.8
2018-03-12T01:20:01.423Z,8.8
2018-03-12T01:25:01.732Z,7.4
2018-03-12T01:30:01.628Z,7.4
2018-03-12T01:35:02.727Z,7.4
2018-03-12T01:40:01.385Z,7.4
2018-03-12T01:45:01.780Z,7.4
2018-03-12T01:50:01.481Z,7.2
2018-03-12T01:55:01.604Z,7.2
2018-03-12T02:00:01.803Z,7.1
2018-03-12T02:05:01.623Z,7
2018-03-12T02:10:01.938Z,7
2018-03-12T02:15:01.539Z,7
2018-03-12T02:20:01.796Z,7
2018-03-12T02:25:02.484Z,7
2018-03-12T02:30:01.499Z,7
2018-03-12T02:35:01.640Z,7
2018-03-12T02:40:01.568Z,7
2018-03-12T02:45:02.238Z,7
2018-03-12T02:50:01.966Z,7
2018-03-12T02:55:01.513Z,7
2018-03-12T03:00:01.714Z,7
2018-03-12T03:05:01.876Z,7
2018-03-12T03:10:01.946Z,7
2018-03-12T03:15:01.815Z,7
2018-03-12T03:20:01.785Z,7
2018-03-12T03:25:02.129Z,7
2018-03-12T03:30:01.844Z,7
2018-03-12T03:35:02.330Z,7
2018-03-12T03:40:01.342Z,7
2018-03-12T03:45:01.937Z,7
2018-03-12T03:50:01.624Z,6
2018-03-12T03:55:02.133Z,6
2018-03-12T04:00:01.552Z,6
2018-03-12T04:05:01.288Z,6
2018-03-12T04:10:02.405Z,6
2018-03-12T04:15:01.316Z,6
2018-03-12T04:20:01.354Z,6
2018-03-12T04:25:01.911Z,6
2018-03-12T04:30:01.860Z,6
2018-03-12T04:35:01.513Z,6
2018-03-12T04:40:02.079Z,5.8
2018-03-12T04:45:01.480Z,5.8
2018-03-12T04:50:01.501Z,5.8
2018-03-12T04:55:01.729Z,5.8
2018-03-12T05:00:01.818Z,5.8
2018-03-12T05:05:02.084Z,5.8
2018-03-12T05:10:02.143Z,5.8
2018-03-12T05:15:01.856Z,5.7
2018-03-12T05:20:02.072Z,5.7
2018-03-12T05:25:01.353Z,5.6
2018-03-12T05:30:01.636Z,5.7
2018-03-12T05:35:01.982Z,5.7
2018-03-12T05:40:02.390Z,5.7
2018-03-12T05:45:01.573Z,5.7
2018-03-12T05:50:01.616Z,5.7
2018-03-12T05:55:01.893Z,5.7
2018-03-12T06:00:01.643Z,5.7
2018-03-12T06:05:02.033Z,5.7
2018-03-12T06:10:02.184Z,5.7
2018-03-12T06:15:01.607Z,5.7
2018-03-12T06:20:02.372Z,5.7
2018-03-12T06:25:01.281Z,5.7
2018-03-12T06:30:01.537Z,5.8
2018-03-12T06:35:01.234Z,5.8
2018-03-12T06:40:02.487Z,5.8
2018-03-12T06:45:01.253Z,5.8
2018-03-12T06:50:01.389Z,5.8
2018-03-12T06:55:01.446Z,5.8
2018-03-12T07:00:02.458Z,5.8
2018-03-12T07:05:01.473Z,6.1
2018-03-12T07:10:01.320Z,6.1
2018-03-12T07:15:01.920Z,6.1
2018-03-12T07:20:02.299Z,6.2
2018-03-12T07:25:02.033Z,6.3
2018-03-12T07:30:01.501Z,6.3
2018-03-12T07:35:01.771Z,6.3
2018-03-12T07:40:02.079Z,6.3
2018-03-12T07:45:01.672Z,6.3
2018-03-12T07:50:02.051Z,6.6
2018-03-12T07:55:02.567Z,6.6
2018-03-12T08:00:01.900Z,6.6
2018-03-12T08:05:01.198Z,6.6
2018-03-12T08:10:01.555Z,6.6
2018-03-12T08:15:02.046Z,6.6
2018-03-12T08:20:01.855Z,6.6
2018-03-12T08:25:01.889Z,6.6
2018-03-12T08:30:02.292Z,6.6
2018-03-12T08:35:01.787Z,6.6
2018-03-12T08:40:01.873Z,6.6
2018-03-12T08:45:02.559Z,6.6
2018-03-12T08:50:01.608Z,6.6
2018-03-12T08:55:02.067Z,6.6
2018-03-12T09:00:01.752Z,6.6
2018-03-12T09:05:02.280Z,6.6
2018-03-12T09:10:02.048Z,6.6
2018-03-12T09:15:01.592Z,6.4
2018-03-12T09:20:01.495Z,6.3
2018-03-12T09:25:02.216Z,6.3
2018-03-12T09:30:01.683Z,6.3
2018-03-12T09:35:02.075Z,6.3
2018-03-12T09:40:01.867Z,6.3
2018-03-12T09:45:01.843Z,6.3
2018-03-12T09:50:01.923Z,6.3
2018-03-12T09:55:02.043Z,6.3
2018-03-12T10:00:01.971Z,6.3
2018-03-12T10:05:01.498Z,6.3
2018-03-12T10:10:01.567Z,6.8
2018-03-12T10:15:02.090Z,6.8
2018-03-12T10:20:01.862Z,6.8
2018-03-12T10:25:01.519Z,7
2018-03-12T10:30:01.205Z,7.1
2018-03-12T10:35:02.475Z,7.1
2018-03-12T10:40:01.566Z,7.2
2018-03-12T10:45:01.594Z,7.2
2018-03-12T10:50:01.932Z,7.2
2018-03-12T10:55:01.470Z,7.3
2018-03-12T11:00:01.918Z,7.4
2018-03-12T11:05:01.258Z,7.4
2018-03-12T11:10:01.939Z,7.5
2018-03-12T11:15:01.557Z,7.6
2018-03-12T11:20:01.633Z,7.6
2018-03-12T11:25:02.115Z,7.7
2018-03-12T11:30:01.495Z,7.8
2018-03-12T11:35:01.752Z,8
2018-03-12T11:40:01.915Z,8
2018-03-12T11:45:01.859Z,8
2018-03-12T11:50:01.952Z,8.1
2018-03-12T11:55:01.852Z,8.1
2018-03-12T12:00:01.809Z,8.1
2018-03-12T12:05:01.221Z,8.3
2018-03-12T12:10:01.331Z,8.4
2018-03-12T12:15:02.330Z,8.4
2018-03-12T12:20:02.182Z,8.4
2018-03-12T12:25:01.611Z,8.4
2018-03-12T12:30:01.263Z,8.8
2018-03-12T12:35:02.068Z,8.8
2018-03-12T12:40:01.945Z,9
2018-03-12T12:45:01.343Z,9
2018-03-12T12:50:01.869Z,9
2018-03-12T12:55:01.284Z,9
2018-03-12T13:00:01.969Z,9
2018-03-12T13:05:01.966Z,8.2
2018-03-12T13:10:01.883Z,7.7
2018-03-12T13:15:01.590Z,7.7
2018-03-12T13:20:01.904Z,7.4
2018-03-12T13:25:01.964Z,7.2
2018-03-12T13:30:01.457Z,7.2
2018-03-12T13:35:01.625Z,7.2
2018-03-12T13:40:01.518Z,7.2
2018-03-12T13:45:01.516Z,7.1
2018-03-12T13:50:02.382Z,7.1
2018-03-12T13:55:01.999Z,7.1
2018-03-12T14:00:01.535Z,7.2
2018-03-12T14:05:01.456Z,7.2
2018-03-12T14:10:02.459Z,7.2
2018-03-12T14:15:01.469Z,7.2
2018-03-12T14:20:01.303Z,7.2
2018-03-12T14:25:01.483Z,7.4
2018-03-12T14:30:02.449Z,7.5
2018-03-12T14:35:01.859Z,7.6
2018-03-12T14:40:01.426Z,7.6
2018-03-12T14:45:01.460Z,7.8
2018-03-12T14:50:01.956Z,7.9
2018-03-12T14:55:02.052Z,7.9
2018-03-12T15:00:02.046Z,8.1
2018-03-12T15:05:01.882Z,8.3
2018-03-12T15:10:01.834Z,8.3
2018-03-12T15:15:01.735Z,8.4
2018-03-12T15:20:02.099Z,8.4
2018-03-12T15:25:01.894Z,8.4
2018-03-12T15:30:01.590Z,8.4
2018-03-12T15:35:01.453Z,8.5
2018-03-12T15:40:01.679Z,8.5
2018-03-12T15:45:01.215Z,8.5
2018-03-12T15:50:01.177Z,8.5
2018-03-12T15:55:02.192Z,8.6
2018-03-12T16:00:01.672Z,8.6
2018-03-12T16:05:01.492Z,8.6
2018-03-12T16:10:01.557Z,8.6
2018-03-12T16:15:01.835Z,8.6
2018-03-12T16:20:01.595Z,8.5
2018-03-12T16:25:01.344Z,8.6
2018-03-12T16:30:02.750Z,8.6
2018-03-12T16:35:01.856Z,8.5
2018-03-12T16:40:02.142Z,8.5
2018-03-12T16:45:01.500Z,8.4
2018-03-12T16:50:01.936Z,8.4
2018-03-12T16:55:01.458Z,8.4
2018-03-12T17:00:02.130Z,8.4
2018-03-12T17:05:02.727Z,8.4
2018-03-12T17:10:02.038Z,8.4
2018-03-12T17:15:01.597Z,8.3
2018-03-12T17:20:01.687Z,8.3
2018-03-12T17:25:01.941Z,8.3
2018-03-12T17:30:01.206Z,8.1
2018-03-12T17:35:01.341Z,8.1
2018-03-12T17:40:01.867Z,8.1
2018-03-12T17:45:01.814Z,8
2018-03-12T17:50:02.215Z,8
2018-03-12T17:55:02.433Z,7.9
2018-03-12T18:00:02.129Z,7.9
2018-03-12T18:05:02.023Z,7.8
2018-03-12T18:10:01.485Z,7.8
2018-03-12T18:15:02.596Z,7.8
2018-03-12T18:20:02.025Z,7.7
2018-03-12T18:25:02.199Z,7.7
2018-03-12T18:30:02.497Z,7.6
2018-03-12T18:35:01.755Z,7.6
2018-03-12T18:40:01.442Z,7.6
2018-03-12T18:45:01.764Z,7.6
2018-03-12T18:50:02.362Z,7.6
2018-03-12T18:55:01.925Z,7.6
2018-03-12T19:00:01.497Z,7.6
2018-03-12T19:05:02.756Z,7.6
2018-03-12T19:10:01.739Z,7.4
2018-03-12T19:15:02.113Z,7.3
2018-03-12T19:20:01.840Z,7.3
2018-03-12T19:25:03.015Z,7.3
2018-03-12T19:30:02.194Z,7.3
2018-03-12T19:35:01.821Z,7.3
2018-03-12T19:40:01.374Z,7.3
2018-03-12T19:45:02.090Z,7.3
2018-03-12T19:50:01.784Z,7.3
2018-03-12T19:55:01.457Z,7.3
2018-03-12T20:00:01.565Z,7.1
2018-03-12T20:05:01.593Z,7.1
2018-03-12T20:10:02.039Z,7.1
2018-03-12T20:15:01.414Z,7.1
2018-03-12T20:20:02.366Z,7.1
2018-03-12T20:25:01.853Z,7.1
2018-03-12T20:30:02.321Z,7.1
2018-03-12T20:35:01.743Z,7.1
2018-03-12T20:40:03.248Z,7.1
2018-03-12T20:45:01.946Z,7.1
2018-03-12T20:50:01.372Z,7.1
2018-03-12T20:55:02.415Z,7.1
2018-03-12T21:00:01.848Z,7.2
2018-03-12T21:05:01.326Z,7.2
2018-03-12T21:10:02.044Z,7.2
2018-03-12T21:15:02.115Z,7.2
2018-03-12T21:20:01.770Z,7.2
2018-03-12T21:25:02.167Z,7.2
2018-03-12T21:30:01.330Z,7.3
2018-03-12T21:35:02.297Z,7.3
2018-03-12T21:40:01.208Z,7.3
2018-03-12T21:45:01.252Z,7.3
2018-03-12T21:50:02.394Z,7.5
2018-03-12T21:55:01.316Z,7.5
2018-03-12T22:00:01.779Z,7.5
2018-03-12T22:05:02.504Z,7.5
2018-03-12T22:10:02.021Z,7.5
2018-03-12T22:15:01.313Z,7.6
2018-03-12T22:20:01.440Z,7.6
2018-03-12T22:25:02.055Z,7.6
2018-03-12T22:30:01.571Z,7.6
2018-03-12T22:35:01.823Z,7.6
2018-03-12T22:40:02.474Z,7.6
2018-03-12T22:45:01.455Z,7.6
2018-03-12T22:50:01.434Z,7.6
2018-03-12T22:55:01.839Z,7.6
2018-03-12T23:00:01.856Z,7.6
2018-03-12T23:05:01.746Z,7.6
2018-03-12T23:10:01.727Z,7.8
2018-03-12T23:15:01.912Z,7.8
2018-03-12T23:20:01.922Z,7.8
2018-03-12T23:25:01.690Z,7.8
2018-03-12T23:30:02.217Z,7.8
2018-03-12T23:35:01.320Z,7.8
2018-03-12T23:40:01.467Z,7.8
2018-03-12T23:45:01.782Z,7.8
2018-03-12T23:50:02.075Z,7.8
2018-03-12T23:55:01.577Z,7.7
